createdAt,value
2018-06-09T00:01:53.487Z,6.13
2018-06-09T00:04:21.737Z,6.90
2018-06-09T00:06:49.953Z,7.17
2018-06-09T00:09:18.169Z,7.90
2018-06-09T00:11:46.398Z,6.67
2018-06-09T00:14:14.616Z,9.37
2018-06-09T00:16:42.846Z,8.37
2018-06-09T00:19:11.070Z,7.00
2018-06-09T00:21:39.244Z,6.83
2018-06-09T00:24:07.461Z,6.67
2018-06-09T00:26:35.642Z,7.43
2018-06-09T00:29:03.785Z,7.63
2018-06-09T00:31:31.952Z,6.70
2018-06-09T00:34:00.196Z,6.73
2018-06-09T00:36:28.382Z,6.23
2018-06-09T00:38:56.602Z,6.97
2018-06-09T00:41:24.801Z,7.17
2018-06-09T00:43:52.952Z,7.60
2018-06-09T00:46:21.347Z,8.00
2018-06-09T00:48:49.554Z,6.73
2018-06-09T00:51:17.728Z,7.93
2018-06-09T00:53:45.904Z,7.17
2018-06-09T00:56:25.452Z,7.33
2018-06-09T00:58:53.644Z,8.10
2018-06-09T01:01:21.841Z,7.57
2018-06-09T01:03:50.045Z,7.57
2018-06-09T01:06:18.262Z,7.37
2018-06-09T01:08:46.426Z,7.33
2018-06-09T01:11:14.616Z,7.27
2018-06-09T01:13:42.857Z,7.27
2018-06-09T01:16:11.079Z,7.37
2018-06-09T01:18:39.276Z,7.77
2018-06-09T01:21:09.464Z,7.53
2018-06-09T01:23:37.610Z,9.30
2018-06-09T01:26:05.860Z,8.37
2018-06-09T01:28:34.059Z,7.80
2018-06-09T01:31:02.229Z,9.83
2018-06-09T01:33:30.408Z,8.00
2018-06-09T01:35:58.618Z,8.60
2018-06-09T01:38:26.820Z,8.40
2018-06-09T01:40:54.980Z,7.83
2018-06-09T01:43:23.175Z,7.73
2018-06-09T01:45:51.373Z,7.70
2018-06-09T01:48:19.558Z,8.40
2018-06-09T01:50:47.724Z,7.47
2018-06-09T01:53:15.942Z,7.50
2018-06-09T01:55:44.133Z,8.57
2018-06-09T01:58:12.318Z,7.10
2018-06-09T02:00:40.477Z,7.90
2018-06-09T02:03:08.678Z,7.57
2018-06-09T02:05:36.888Z,8.17
2018-06-09T02:08:05.154Z,8.17
2018-06-09T02:10:33.335Z,7.50
2018-06-09T02:13:01.763Z,8.03
2018-06-09T02:15:29.896Z,8.53
2018-06-09T02:17:58.061Z,8.33
2018-06-09T02:20:26.222Z,6.40
2018-06-09T02:22:54.414Z,8.00
2018-06-09T02:25:22.717Z,9.57
2018-06-09T02:27:50.928Z,7.23
2018-06-09T02:30:19.113Z,8.47
2018-06-09T02:32:47.285Z,7.40
2018-06-09T02:35:15.457Z,7.00
2018-06-09T02:37:43.743Z,7.30
2018-06-09T02:40:12.012Z,7.63
2018-06-09T02:42:40.205Z,6.73
2018-06-09T02:45:08.432Z,6.97
2018-06-09T02:47:36.634Z,7.50
2018-06-09T02:50:04.886Z,7.10
2018-06-09T02:52:33.081Z,7.03
2018-06-09T02:55:01.315Z,7.17
2018-06-09T02:57:29.477Z,6.57
2018-06-09T02:59:57.695Z,8.13
2018-06-09T03:02:25.889Z,6.30
2018-06-09T03:04:54.074Z,6.17
2018-06-09T03:07:22.249Z,6.57
2018-06-09T03:09:50.448Z,9.73
2018-06-09T03:12:18.779Z,7.00
2018-06-09T03:14:47.186Z,7.43
2018-06-09T03:17:15.420Z,6.70
2018-06-09T03:19:43.716Z,6.80
2018-06-09T03:22:11.932Z,7.50
2018-06-09T03:24:40.184Z,6.40
2018-06-09T03:27:08.416Z,6.70
2018-06-09T03:29:36.605Z,6.57
2018-06-09T03:32:04.813Z,7.17
2018-06-09T03:34:33.052Z,5.90
2018-06-09T03:37:01.320Z,6.27
2018-06-09T03:39:29.519Z,5.90
2018-06-09T03:41:57.709Z,6.30
2018-06-09T03:44:25.956Z,6.60
2018-06-09T03:46:54.150Z,6.50
2018-06-09T03:49:22.386Z,6.47
2018-06-09T03:51:50.584Z,5.50
2018-06-09T03:54:18.800Z,6.60
2018-06-09T03:56:46.990Z,6.77
2018-06-09T03:59:15.362Z,7.20
2018-06-09T04:01:43.542Z,6.80
2018-06-09T04:04:11.810Z,7.07
2018-06-09T04:06:39.985Z,5.50
2018-06-09T04:09:08.490Z,5.90
2018-06-09T04:11:36.796Z,5.77
2018-06-09T04:14:04.970Z,6.30
2018-06-09T04:16:33.164Z,13.53
2018-06-09T04:19:01.434Z,5.80
2018-06-09T04:21:29.614Z,4.80
2018-06-09T04:23:57.853Z,4.90
2018-06-09T04:26:26.059Z,4.90
2018-06-09T04:28:54.350Z,4.87
2018-06-09T04:31:22.608Z,11.70
2018-06-09T04:33:50.814Z,3.77
2018-06-09T04:36:19.089Z,4.53
2018-06-09T04:38:47.370Z,4.17
2018-06-09T04:41:15.616Z,4.47
2018-06-09T04:43:43.882Z,4.40
2018-06-09T04:46:12.113Z,3.30
2018-06-09T04:48:40.303Z,3.93
2018-06-09T04:51:08.581Z,3.87
2018-06-09T04:53:36.756Z,3.63
2018-06-09T04:56:05.927Z,5.00
2018-06-09T04:58:34.223Z,4.70
2018-06-09T05:01:02.566Z,4.03
2018-06-09T05:03:30.909Z,4.57
2018-06-09T05:05:59.145Z,4.83
2018-06-09T05:08:27.302Z,6.13
2018-06-09T05:10:55.474Z,6.00
2018-06-09T05:13:23.596Z,4.30
2018-06-09T05:15:51.781Z,4.63
2018-06-09T05:18:19.957Z,4.70
2018-06-09T05:20:48.157Z,4.07
2018-06-09T05:23:16.369Z,4.13
2018-06-09T05:25:44.545Z,4.03
2018-06-09T05:28:13.806Z,3.73
2018-06-09T05:30:41.928Z,4.53
2018-06-09T05:33:10.091Z,5.50
2018-06-09T05:35:38.245Z,6.30
2018-06-09T05:38:06.757Z,3.23
2018-06-09T05:40:34.999Z,3.40
2018-06-09T05:43:03.429Z,3.53
2018-06-09T05:45:31.592Z,5.07
2018-06-09T05:47:59.764Z,3.80
2018-06-09T05:50:27.928Z,3.70
2018-06-09T05:52:56.225Z,3.80
2018-06-09T05:55:24.492Z,9.60
2018-06-09T05:57:52.658Z,3.67
2018-06-09T06:00:20.810Z,4.03
2018-06-09T06:02:48.984Z,3.47
2018-06-09T06:05:17.669Z,3.70
2018-06-09T06:07:46.278Z,4.20
2018-06-09T06:13:31.539Z,3.60
2018-06-09T06:32:25.163Z,3.67
2018-06-09T06:35:44.657Z,3.53
2018-06-09T06:48:01.166Z,3.70
2018-06-09T06:50:58.528Z,4.50
2018-06-09T06:54:09.670Z,4.77
2018-06-09T06:56:58.860Z,4.20
2018-06-09T07:08:26.304Z,4.63
2018-06-09T10:53:41.405Z,2.67
2018-06-09T10:56:50.467Z,2.30
2018-06-09T10:59:42.451Z,4.70
2018-06-09T11:05:08.935Z,4.23
2018-06-09T11:19:29.270Z,4.17
2018-06-09T11:22:22.442Z,2.70
2018-06-09T11:25:12.952Z,2.67
2018-06-09T11:27:56.084Z,2.10
2018-06-09T11:30:26.737Z,3.33
2018-06-09T11:32:58.984Z,2.67
2018-06-09T11:36:32.392Z,2.90
2018-06-09T11:44:55.755Z,2.43
2018-06-09T11:47:34.701Z,4.63
2018-06-09T11:50:06.031Z,2.40
2018-06-09T11:58:12.365Z,6.80
2018-06-09T12:01:05.410Z,2.33
2018-06-09T12:03:42.732Z,2.57
2018-06-09T12:06:24.958Z,2.40
2018-06-09T12:08:55.618Z,3.87
2018-06-09T12:11:46.440Z,6.27
2018-06-09T12:14:20.047Z,3.17
2018-06-09T12:20:03.400Z,3.40
2018-06-09T12:22:32.601Z,2.40
2018-06-09T12:25:15.708Z,2.50
2018-06-09T12:32:45.407Z,3.83
2018-06-09T12:35:16.874Z,2.53
2018-06-09T12:38:11.613Z,2.73
2018-06-09T12:40:58.452Z,4.63
2018-06-09T12:43:42.173Z,1.97
2018-06-09T12:49:17.656Z,3.33
2018-06-09T12:51:47.187Z,2.60
2018-06-09T12:54:30.817Z,2.90
2018-06-09T12:57:00.237Z,3.63
2018-06-09T12:59:41.649Z,4.20
2018-06-09T13:02:13.269Z,2.60
2018-06-09T13:04:46.738Z,2.90
2018-06-09T13:08:15.737Z,2.90
2018-06-09T13:10:46.923Z,2.83
2018-06-09T13:13:24.105Z,3.10
2018-06-09T13:16:16.100Z,3.20
2018-06-09T13:19:17.103Z,3.33
2018-06-09T13:21:46.756Z,2.70
2018-06-09T13:24:15.212Z,3.33
2018-06-09T13:26:44.501Z,3.60
2018-06-09T13:29:19.878Z,3.30
2018-06-09T13:31:55.926Z,3.90
2018-06-09T13:34:28.070Z,4.00
2018-06-09T13:37:20.016Z,5.80
2018-06-09T13:39:56.518Z,3.77
2018-06-09T13:45:30.615Z,8.40
2018-06-09T13:58:00.661Z,3.93
2018-06-09T14:00:35.390Z,3.50
2018-06-09T14:07:24.519Z,3.97
2018-06-09T14:16:14.353Z,3.23
2018-06-09T14:18:52.407Z,3.67
2018-06-09T14:21:23.914Z,3.37
2018-06-09T14:24:06.363Z,3.30
2018-06-09T14:26:52.771Z,3.30
2018-06-09T14:29:37.250Z,4.10
2018-06-09T14:32:13.648Z,3.60
2018-06-09T14:34:43.714Z,3.83
2018-06-09T14:37:13.545Z,4.10
2018-06-09T14:39:43.626Z,4.37
2018-06-09T14:44:12.690Z,3.57
2018-06-09T14:50:05.965Z,5.20
2018-06-09T15:05:34.144Z,3.43
2018-06-09T15:14:16.732Z,4.43
2018-06-09T15:19:31.380Z,3.13
2018-06-09T15:25:17.397Z,4.33
2018-06-09T15:53:42.053Z,4.07
2018-06-09T16:02:00.776Z,8.53
2018-06-09T16:04:36.412Z,5.33
2018-06-09T18:53:30.161Z,3.40
2018-06-09T18:55:58.437Z,3.10
2018-06-09T18:58:26.678Z,3.30
2018-06-09T19:00:54.925Z,3.13
2018-06-09T19:03:24.325Z,3.30
2018-06-09T19:05:52.756Z,2.60
2018-06-09T19:08:21.853Z,2.67
2018-06-09T19:10:50.486Z,3.17
2018-06-09T19:13:18.709Z,3.83
2018-06-09T19:15:46.926Z,3.60
2018-06-09T19:18:15.209Z,5.80
2018-06-09T19:20:44.509Z,5.13
2018-06-09T19:23:12.722Z,5.83
2018-06-09T19:25:40.923Z,4.30
2018-06-09T19:28:09.282Z,6.43
2018-06-09T19:30:37.421Z,3.23
2018-06-09T19:33:05.720Z,5.90
2018-06-09T19:35:33.953Z,4.20
2018-06-09T19:38:02.432Z,3.67
2018-06-09T19:40:30.541Z,5.03
2018-06-09T19:42:58.706Z,5.10
2018-06-09T19:45:26.904Z,3.70
2018-06-09T19:47:55.175Z,3.50
2018-06-09T19:50:23.308Z,3.07
2018-06-09T19:52:51.480Z,5.30
2018-06-09T19:55:20.056Z,3.57
2018-06-09T19:57:48.186Z,5.10
2018-06-09T20:00:16.342Z,5.50
2018-06-09T20:02:44.496Z,3.93
2018-06-09T20:05:12.692Z,4.00
2018-06-09T20:07:40.877Z,3.93
2018-06-09T20:10:09.034Z,4.20
2018-06-09T20:12:37.292Z,4.10
2018-06-09T20:15:05.610Z,4.30
2018-06-09T20:17:33.748Z,3.57
2018-06-09T20:20:01.909Z,6.67
2018-06-09T20:22:30.117Z,5.40
2018-06-09T20:24:58.240Z,3.70
2018-06-09T20:27:26.411Z,4.33
2018-06-09T20:29:54.543Z,3.70
2018-06-09T20:32:22.689Z,4.50
2018-06-09T20:34:50.808Z,3.43
2018-06-09T20:37:19.004Z,3.83
2018-06-09T20:39:47.133Z,4.90
2018-06-09T20:42:15.581Z,3.20
2018-06-09T20:44:43.740Z,3.50
2018-06-09T20:47:13.097Z,3.37
2018-06-09T20:49:42.554Z,2.90
2018-06-09T20:52:10.937Z,3.77
2018-06-09T20:54:40.225Z,2.70
2018-06-09T20:57:08.493Z,3.30
2018-06-09T20:59:37.151Z,3.03
2018-06-09T21:02:05.441Z,3.30
2018-06-09T21:04:33.580Z,4.40
2018-06-09T21:07:01.722Z,6.20
2018-06-09T21:09:29.864Z,3.13
2018-06-09T21:11:57.980Z,3.53
2018-06-09T21:14:26.111Z,5.60
2018-06-09T21:16:54.250Z,4.23
2018-06-09T21:19:22.420Z,3.27
2018-06-09T21:21:50.721Z,4.63
2018-06-09T21:24:18.848Z,3.60
2018-06-09T21:26:52.194Z,4.50
2018-06-09T21:29:25.804Z,3.30
2018-06-09T21:31:53.927Z,3.80
2018-06-09T21:34:35.608Z,3.20
2018-06-09T21:37:09.176Z,3.50
2018-06-09T21:39:42.853Z,3.83
2018-06-09T21:42:16.321Z,6.77
2018-06-09T21:44:47.544Z,4.00
2018-06-09T21:47:16.028Z,3.13
2018-06-09T21:49:44.176Z,4.33
2018-06-09T21:52:12.304Z,5.50
2018-06-09T21:54:40.450Z,3.63
2018-06-09T21:57:08.600Z,6.53
2018-06-09T21:59:36.876Z,3.27
2018-06-09T22:02:05.061Z,4.20
2018-06-09T22:04:33.250Z,3.00
2018-06-09T22:07:01.393Z,4.97
2018-06-09T22:09:29.520Z,4.07
2018-06-09T22:11:57.673Z,3.57
2018-06-09T22:14:25.842Z,3.50
2018-06-09T22:16:53.987Z,4.10
2018-06-09T22:19:22.161Z,3.60
2018-06-09T22:21:50.268Z,3.97
2018-06-09T22:24:18.400Z,3.60
2018-06-09T22:26:58.315Z,3.73
2018-06-09T22:29:26.460Z,4.13
2018-06-09T22:31:54.626Z,7.47
2018-06-09T22:34:22.759Z,3.73
2018-06-09T22:36:50.885Z,3.53
2018-06-09T22:39:19.012Z,3.67
2018-06-09T22:41:47.219Z,3.53
2018-06-09T22:44:15.589Z,3.30
2018-06-09T22:46:43.777Z,3.53
2018-06-09T22:49:11.937Z,4.70
2018-06-09T22:51:40.052Z,4.00
2018-06-09T22:54:08.246Z,5.13
2018-06-09T22:56:36.435Z,4.50
2018-06-09T22:59:04.608Z,4.80
2018-06-09T23:01:32.786Z,4.67
2018-06-09T23:04:00.897Z,4.07
2018-06-09T23:06:29.031Z,4.23
2018-06-09T23:08:57.178Z,5.00
2018-06-09T23:11:25.331Z,3.87
2018-06-09T23:13:53.465Z,5.00
2018-06-09T23:16:21.629Z,4.00
2018-06-09T23:18:49.793Z,4.20
2018-06-09T23:21:17.914Z,7.47
2018-06-09T23:23:46.066Z,5.37
2018-06-09T23:26:14.220Z,5.37
2018-06-09T23:28:42.362Z,6.03
2018-06-09T23:31:10.518Z,5.50
2018-06-09T23:33:38.635Z,4.83
2018-06-09T23:36:06.771Z,4.47
2018-06-09T23:38:34.911Z,4.17
2018-06-09T23:41:03.069Z,4.40
2018-06-09T23:43:31.272Z,5.10
2018-06-09T23:45:59.417Z,5.27
2018-06-09T23:48:27.556Z,4.47
2018-06-09T23:50:55.692Z,3.87
2018-06-09T23:53:23.840Z,4.03
2018-06-09T23:55:52.081Z,4.70
2018-06-09T23:58:20.189Z,4.30
